Time;durP1;ratioP1;P1;durP2;ratioP2;P2;SDS_P1;SDS_P2;PMS_P1;PMS_P2;Temp;Humidity;BMP_temperature;BMP_pressure;BME280_temperature;BME280_humidity;BME280_pressure;Samples;Min_cycle;Max_cycle;Signal;HPM_P1;HPM_P2
2022/10/24 00:02:08;;;;;;;;;;;384.40;2329.60;;;;;;5065329;28;19916;-62
2022/10/24 00:04:34;;;;;;;;;;;384.40;2329.60;;;;;;5065010;28;20679;-62
2022/10/24 00:07:00;;;;;;;;;;;384.40;2329.60;;;;;;5064643;28;19986;-62
2022/10/24 00:09:26;;;;;;;;;;;384.30;2329.60;;;;;;5065150;28;20354;-60
2022/10/24 00:11:51;;;;;;;;;;;384.30;2329.60;;;;;;5064991;28;19999;-61
2022/10/24 00:14:17;;;;;;;;;;;384.30;2329.60;;;;;;5064892;28;19963;-62
2022/10/24 00:16:42;;;;;;;;;;;384.10;2329.60;;;;;;5056601;28;20307;-61
2022/10/24 00:19:08;;;;;;;;;;;384.00;2329.60;;;;;;5051338;28;19916;-62
2022/10/24 00:21:33;;;;;;;;;;;384.00;2329.60;;;;;;5051751;28;19913;-61
2022/10/24 00:23:59;;;;;;;;;;;384.00;2329.60;;;;;;5051442;28;19955;-61
2022/10/24 00:26:25;;;;;;;;;;;384.00;2329.60;;;;;;5051263;28;19919;-61
2022/10/24 00:28:50;;;;;;;;;;;384.00;2329.60;;;;;;5053728;28;19999;-62
2022/10/24 00:31:17;;;;;;;;;;;384.00;2329.60;;;;;;5053382;28;19909;-61
2022/10/24 00:33:43;;;;;;;;;;;384.00;2329.60;;;;;;5052881;28;20419;-60
2022/10/24 00:36:09;;;;;;;;;;;384.00;2329.60;;;;;;5052782;28;19909;-62
2022/10/24 00:38:35;;;;;;;;;;;384.00;2329.60;;;;;;5052989;28;19971;-62
2022/10/24 00:41:00;;;;;;;;;;;359.30;2329.60;;;;;;5052889;28;20330;-62
2022/10/24 00:43:26;;;;;;;;;;;359.20;2329.60;;;;;;5052839;28;19916;-62
2022/10/24 00:45:53;;;;;;;;;;;359.30;2329.60;;;;;;5052858;28;19931;-61
2022/10/24 00:48:40;;;;;;;;;;;359.30;2329.60;;;;;;5052717;28;19909;-64
2022/10/24 00:51:20;;;;;;;;;;;384.00;2329.60;;;;;;5052728;28;19908;-65
2022/10/24 00:53:50;;;;;;;;;;;384.00;2329.60;;;;;;5052574;28;20260;-63
2022/10/24 00:56:20;;;;;;;;;;;359.30;2329.60;;;;;;5052703;28;19909;-64
2022/10/24 00:58:47;;;;;;;;;;;359.20;2329.60;;;;;;5052676;28;19909;-64
2022/10/24 01:01:12;;;;;;;;;;;359.30;2329.60;;;;;;5052463;28;20391;-65
2022/10/24 01:03:38;;;;;;;;;;;359.30;2329.60;;;;;;5052345;28;19948;-64
2022/10/24 01:06:11;;;;;;;;;;;359.30;2329.60;;;;;;5052184;28;20366;-63
2022/10/24 01:08:49;;;;;;;;;;;359.20;2329.60;;;;;;5052487;28;20022;-62
2022/10/24 01:11:15;;;;;;;;;;;359.10;2329.60;;;;;;5052373;28;20355;-64
2022/10/24 01:13:40;;;;;;;;;;;359.20;2329.60;;;;;;5052106;28;19909;-64
2022/10/24 01:16:08;;;;;;;;;;;359.10;2329.60;;;;;;5052136;28;19916;-62
2022/10/24 01:18:40;;;;;;;;;;;359.10;2329.60;;;;;;5052183;28;20274;-61
2022/10/24 01:21:29;;;;;;;;;;;359.00;2329.60;;;;;;5052052;28;19928;-62
2022/10/24 01:24:00;;;;;;;;;;;359.00;2329.60;;;;;;5052227;28;19956;-62
2022/10/24 01:26:31;;;;;;;;;;;359.10;2329.60;;;;;;5052064;28;19912;-62
2022/10/24 01:29:06;;;;;;;;;;;359.10;2329.60;;;;;;5050951;28;19909;-63
2022/10/24 01:31:40;;;;;;;;;;;359.00;2329.60;;;;;;5051844;28;19960;-65
2022/10/24 01:34:19;;;;;;;;;;;359.00;2329.60;;;;;;5051890;28;19944;-65
2022/10/24 01:36:48;;;;;;;;;;;359.00;2329.60;;;;;;5051932;28;19963;-61
2022/10/24 01:39:17;;;;;;;;;;;359.00;2329.60;;;;;;5051772;28;19909;-61
2022/10/24 01:41:43;;;;;;;;;;;359.00;2329.60;;;;;;5051856;28;19952;-65
2022/10/24 01:44:15;;;;;;;;;;;359.10;2329.60;;;;;;5051502;28;19955;-64
2022/10/24 01:46:49;;;;;;;;;;;359.00;2329.60;;;;;;5051555;28;19971;-64
2022/10/24 01:49:16;;;;;;;;;;;359.00;2329.60;;;;;;5051720;28;19908;-65
2022/10/24 01:51:43;;;;;;;;;;;359.00;2329.60;;;;;;5051706;28;19913;-63
2022/10/24 01:54:09;;;;;;;;;;;359.00;2329.60;;;;;;5051289;28;19908;-64
2022/10/24 01:56:35;;;;;;;;;;;358.90;2329.60;;;;;;5051496;28;19909;-62
2022/10/24 01:59:04;;;;;;;;;;;358.90;2329.60;;;;;;5051378;28;20423;-65
2022/10/24 02:01:30;;;;;;;;;;;358.90;2329.60;;;;;;5051181;28;19909;-66
2022/10/24 02:04:01;;;;;;;;;;;358.90;2329.60;;;;;;5051081;28;19982;-63
2022/10/24 02:06:29;;;;;;;;;;;358.90;2329.60;;;;;;5051158;28;19909;-64
2022/10/24 02:08:57;;;;;;;;;;;359.00;2329.60;;;;;;5051197;28;19916;-62
2022/10/24 02:11:22;;;;;;;;;;;359.00;2329.60;;;;;;5051131;28;19967;-62
2022/10/24 02:13:56;;;;;;;;;;;359.00;2329.60;;;;;;5051226;28;20345;-61
2022/10/24 02:16:22;;;;;;;;;;;359.00;2329.60;;;;;;5051167;28;20198;-65
2022/10/24 02:18:49;;;;;;;;;;;359.00;2329.60;;;;;;5050974;28;19916;-65
2022/10/24 02:21:23;;;;;;;;;;;359.00;2329.60;;;;;;5051059;28;19909;-63
2022/10/24 02:24:04;;;;;;;;;;;359.00;2329.60;;;;;;5050687;28;20267;-67
2022/10/24 02:26:35;;;;;;;;;;;359.00;2329.60;;;;;;5051066;28;19916;-66
2022/10/24 02:29:04;;;;;;;;;;;359.00;2329.60;;;;;;5050967;28;20007;-63
2022/10/24 02:31:31;;;;;;;;;;;359.00;2329.60;;;;;;5050798;28;19909;-64
2022/10/24 02:33:57;;;;;;;;;;;359.00;2329.60;;;;;;5050844;28;19909;-66
2022/10/24 02:36:26;;;;;;;;;;;358.90;2329.60;;;;;;5050827;28;19913;-66
2022/10/24 02:38:52;;;;;;;;;;;358.90;2329.60;;;;;;5050388;28;19916;-61
2022/10/24 02:41:21;;;;;;;;;;;358.90;2329.60;;;;;;5050547;28;20385;-62
2022/10/24 02:43:47;;;;;;;;;;;359.00;2329.60;;;;;;5050665;28;20008;-63
2022/10/24 02:46:13;;;;;;;;;;;359.00;2329.60;;;;;;5050676;28;20008;-62
2022/10/24 02:48:41;;;;;;;;;;;359.00;2329.60;;;;;;5050512;28;19908;-63
2022/10/24 02:51:07;;;;;;;;;;;359.00;2329.60;;;;;;5050594;28;19916;-63
2022/10/24 02:53:34;;;;;;;;;;;359.00;2329.60;;;;;;5050531;28;19913;-63
2022/10/24 02:56:00;;;;;;;;;;;359.00;2329.60;;;;;;5050481;28;19908;-62
2022/10/24 02:58:25;;;;;;;;;;;359.00;2329.60;;;;;;5050733;28;19909;-64
2022/10/24 03:00:51;;;;;;;;;;;359.00;2329.60;;;;;;5050345;28;19909;-63
2022/10/24 03:03:16;;;;;;;;;;;359.00;2329.60;;;;;;5050457;28;19937;-63
2022/10/24 03:05:42;;;;;;;;;;;359.00;2329.60;;;;;;5049901;28;19930;-63
2022/10/24 03:08:07;;;;;;;;;;;359.00;2329.60;;;;;;5050255;28;19909;-63
2022/10/24 03:10:33;;;;;;;;;;;359.00;2329.60;;;;;;5050477;28;19913;-62
2022/10/24 03:12:59;;;;;;;;;;;359.00;2329.60;;;;;;5050332;28;19912;-63
2022/10/24 03:15:25;;;;;;;;;;;359.00;2329.60;;;;;;5050481;28;19909;-64
2022/10/24 03:17:51;;;;;;;;;;;359.00;2329.60;;;;;;5050258;28;20000;-62
2022/10/24 03:20:16;;;;;;;;;;;359.00;2329.60;;;;;;5050359;28;19916;-63
2022/10/24 03:22:42;;;;;;;;;;;358.90;2329.60;;;;;;5050097;28;19912;-64
2022/10/24 03:25:10;;;;;;;;;;;358.90;2329.60;;;;;;5050050;28;20326;-62
2022/10/24 03:27:35;;;;;;;;;;;358.90;2329.60;;;;;;5050547;28;19915;-65
2022/10/24 03:30:01;;;;;;;;;;;358.80;2329.60;;;;;;5050143;28;20337;-63
2022/10/24 03:32:27;;;;;;;;;;;358.90;2329.60;;;;;;5049982;28;19944;-62
2022/10/24 03:34:52;;;;;;;;;;;358.90;2329.60;;;;;;5050129;28;19921;-63
2022/10/24 03:37:18;;;;;;;;;;;358.90;2329.60;;;;;;5049848;28;20017;-63
2022/10/24 03:39:43;;;;;;;;;;;358.90;2329.60;;;;;;5050331;28;19916;-60
2022/10/24 03:42:09;;;;;;;;;;;358.90;2329.60;;;;;;5049989;28;19931;-65
2022/10/24 03:44:35;;;;;;;;;;;358.90;2329.60;;;;;;5050167;28;19959;-66
2022/10/24 03:47:00;;;;;;;;;;;358.90;2329.60;;;;;;5050007;28;20397;-61
2022/10/24 03:49:27;;;;;;;;;;;359.00;2329.60;;;;;;5050233;28;19909;-65
2022/10/24 03:51:53;;;;;;;;;;;358.90;2329.60;;;;;;5052139;28;20011;-62
2022/10/24 03:54:18;;;;;;;;;;;359.00;2329.60;;;;;;5053699;28;20003;-60
2022/10/24 03:56:44;;;;;;;;;;;359.00;2329.60;;;;;;5053990;28;19916;-64
2022/10/24 03:59:10;;;;;;;;;;;359.00;2329.60;;;;;;5053618;28;20362;-65
2022/10/24 04:01:35;;;;;;;;;;;359.00;2329.60;;;;;;5053629;28;20311;-67
2022/10/24 04:04:01;;;;;;;;;;;359.00;2329.60;;;;;;5053599;28;19956;-65
2022/10/24 04:06:26;;;;;;;;;;;359.00;2329.60;;;;;;5053731;28;19920;-65
2022/10/24 04:08:52;;;;;;;;;;;358.90;2329.60;;;;;;5053680;28;19966;-65
2022/10/24 04:11:18;;;;;;;;;;;358.90;2329.60;;;;;;5053500;28;20408;-65
2022/10/24 04:13:43;;;;;;;;;;;358.90;2329.60;;;;;;5053553;28;20274;-66
2022/10/24 04:16:09;;;;;;;;;;;358.80;2329.60;;;;;;5053154;28;19909;-61
2022/10/24 04:18:34;;;;;;;;;;;358.80;2329.60;;;;;;5053391;28;19995;-65
2022/10/24 04:21:00;;;;;;;;;;;358.90;2329.60;;;;;;5053480;28;19916;-64
2022/10/24 04:23:26;;;;;;;;;;;358.80;2329.60;;;;;;5053275;28;19977;-65
2022/10/24 04:25:52;;;;;;;;;;;358.80;2329.60;;;;;;5053152;28;19921;-62
2022/10/24 04:28:17;;;;;;;;;;;358.80;2329.60;;;;;;5053233;28;19909;-63
2022/10/24 04:30:43;;;;;;;;;;;358.80;2329.60;;;;;;5053234;28;19917;-65
2022/10/24 04:33:08;;;;;;;;;;;358.80;2329.60;;;;;;5052941;28;19916;-64
2022/10/24 04:35:34;;;;;;;;;;;358.90;2329.60;;;;;;5052932;28;19913;-64
2022/10/24 04:38:00;;;;;;;;;;;358.90;2329.60;;;;;;5053010;28;19921;-65
2022/10/24 04:40:25;;;;;;;;;;;358.90;2329.60;;;;;;5052933;28;19909;-64
2022/10/24 04:42:51;;;;;;;;;;;358.90;2329.60;;;;;;5052770;28;20368;-62
2022/10/24 04:45:16;;;;;;;;;;;358.90;2329.60;;;;;;5052770;28;19917;-62
2022/10/24 04:47:42;;;;;;;;;;;358.90;2329.60;;;;;;5052865;28;19916;-64
2022/10/24 04:50:08;;;;;;;;;;;358.90;2329.60;;;;;;5052671;28;19962;-64
2022/10/24 04:52:33;;;;;;;;;;;358.90;2329.60;;;;;;5052714;28;19909;-61
2022/10/24 04:54:59;;;;;;;;;;;358.90;2329.60;;;;;;5052590;28;20267;-64
2022/10/24 04:57:25;;;;;;;;;;;358.90;2329.60;;;;;;5052734;28;19913;-63
2022/10/24 04:59:50;;;;;;;;;;;358.90;2329.60;;;;;;5052621;28;19909;-65
2022/10/24 05:02:16;;;;;;;;;;;358.80;2329.60;;;;;;5052471;28;19909;-64
2022/10/24 05:04:41;;;;;;;;;;;358.80;2329.60;;;;;;5052083;28;19928;-65
2022/10/24 05:07:07;;;;;;;;;;;358.80;2329.60;;;;;;5052299;28;19916;-64
2022/10/24 05:09:32;;;;;;;;;;;358.80;2329.60;;;;;;5052286;28;19987;-62
2022/10/24 05:11:58;;;;;;;;;;;358.90;2329.60;;;;;;5052051;28;19947;-64
2022/10/24 05:14:23;;;;;;;;;;;359.00;2329.60;;;;;;5052449;28;19996;-65
2022/10/24 05:16:49;;;;;;;;;;;359.00;2329.60;;;;;;5052047;28;20339;-61
2022/10/24 05:19:15;;;;;;;;;;;359.00;2329.60;;;;;;5051947;28;19909;-65
2022/10/24 05:21:41;;;;;;;;;;;359.00;2329.60;;;;;;5051902;28;19956;-66
2022/10/24 05:24:07;;;;;;;;;;;359.10;2329.60;;;;;;5051830;28;20252;-65
2022/10/24 05:26:33;;;;;;;;;;;359.20;2329.60;;;;;;5052346;28;20355;-66
2022/10/24 05:28:58;;;;;;;;;;;384.00;2329.60;;;;;;5051860;28;19999;-65
2022/10/24 05:31:24;;;;;;;;;;;384.00;2329.60;;;;;;5051891;28;19954;-63
2022/10/24 05:33:49;;;;;;;;;;;384.10;2329.60;;;;;;5050199;28;20378;-62
2022/10/24 05:36:15;;;;;;;;;;;384.30;2329.60;;;;;;5051810;28;20416;-65
2022/10/24 05:38:41;;;;;;;;;;;384.30;2329.60;;;;;;5051585;28;19909;-65
2022/10/24 05:41:07;;;;;;;;;;;384.50;2329.60;;;;;;5051786;28;19909;-65
2022/10/24 05:43:33;;;;;;;;;;;384.60;2329.60;;;;;;5051571;28;20362;-65
2022/10/24 05:45:59;;;;;;;;;;;384.60;2329.60;;;;;;5051507;28;19921;-61
2022/10/24 05:48:24;;;;;;;;;;;384.60;2329.60;;;;;;5051580;28;19909;-61
2022/10/24 05:50:54;;;;;;;;;;;384.70;2329.60;;;;;;5051274;28;19908;-61
2022/10/24 05:53:19;;;;;;;;;;;384.70;2329.60;;;;;;5051449;28;19913;-61
2022/10/24 05:55:45;;;;;;;;;;;384.70;2329.60;;;;;;5051436;28;19913;-61
2022/10/24 05:58:10;;;;;;;;;;;384.90;2329.60;;;;;;5051186;28;19909;-61
2022/10/24 06:00:36;;;;;;;;;;;409.70;2355.20;;;;;;5051535;28;19916;-61
2022/10/24 06:03:01;;;;;;;;;;;409.80;2355.20;;;;;;5051236;28;20354;-61
2022/10/24 06:05:28;;;;;;;;;;;410.00;2355.20;;;;;;5050778;28;19931;-61
2022/10/24 06:07:53;;;;;;;;;;;410.30;2355.20;;;;;;5051223;28;19955;-61
2022/10/24 06:10:19;;;;;;;;;;;435.20;2355.20;;;;;;5050998;28;19949;-61
2022/10/24 06:12:45;;;;;;;;;;;435.30;2355.20;;;;;;5051213;28;19916;-61
2022/10/24 06:15:11;;;;;;;;;;;435.50;2355.20;;;;;;5050484;28;19930;-60
2022/10/24 06:17:36;;;;;;;;;;;435.70;2355.20;;;;;;5051272;28;19940;-61
2022/10/24 06:20:03;;;;;;;;;;;435.80;2355.20;;;;;;5050883;28;20351;-61
2022/10/24 06:22:28;;;;;;;;;;;435.80;2355.20;;;;;;5050938;28;19909;-61
2022/10/24 06:24:54;;;;;;;;;;;435.90;2355.20;;;;;;5050955;28;19917;-60
2022/10/24 06:27:20;;;;;;;;;;;436.10;2355.20;;;;;;5050671;28;19909;-61
2022/10/24 06:29:45;;;;;;;;;;;460.80;2380.80;;;;;;5050796;28;20274;-61
2022/10/24 06:32:11;;;;;;;;;;;460.90;2380.80;;;;;;5050809;28;19964;-61
2022/10/24 06:34:36;;;;;;;;;;;461.00;2380.80;;;;;;5050756;28;20003;-61
2022/10/24 06:37:02;;;;;;;;;;;461.20;2380.80;;;;;;5050953;28;19947;-61
2022/10/24 06:39:28;;;;;;;;;;;461.30;2380.80;;;;;;5049605;28;20275;-61
2022/10/24 06:41:53;;;;;;;;;;;461.30;2380.80;;;;;;5050666;28;19909;-61
2022/10/24 06:44:19;;;;;;;;;;;461.10;2380.80;;;;;;5050397;28;19920;-61
2022/10/24 06:46:45;;;;;;;;;;;460.90;2380.80;;;;;;5050833;28;19932;-61
2022/10/24 06:49:11;;;;;;;;;;;460.90;2380.80;;;;;;5049461;28;19916;-61
2022/10/24 06:51:36;;;;;;;;;;;461.10;2380.80;;;;;;5041227;28;19913;-61
2022/10/24 06:54:02;;;;;;;;;;;461.40;2380.80;;;;;;5029850;28;20279;-61
2022/10/24 06:56:28;;;;;;;;;;;461.60;2380.80;;;;;;5030593;28;19921;-62
2022/10/24 06:58:53;;;;;;;;;;;486.40;2380.80;;;;;;5030547;28;19910;-61
2022/10/24 07:01:20;;;;;;;;;;;486.60;2380.80;;;;;;5030212;28;20398;-62
2022/10/24 07:03:46;;;;;;;;;;;486.80;2380.80;;;;;;5030330;28;19916;-61
2022/10/24 07:06:16;;;;;;;;;;;487.00;2380.80;;;;;;5030256;28;19925;-61
2022/10/24 07:08:41;;;;;;;;;;;487.00;2380.80;;;;;;5031767;28;20274;-61
2022/10/24 07:11:07;;;;;;;;;;;486.90;2380.80;;;;;;5032739;28;19913;-61
2022/10/24 07:13:32;;;;;;;;;;;486.80;2380.80;;;;;;5038520;28;20429;-61
2022/10/24 07:15:58;;;;;;;;;;;486.80;2380.80;;;;;;5039430;28;19917;-61
2022/10/24 07:18:24;;;;;;;;;;;487.30;2380.80;;;;;;5038518;28;19921;-62
2022/10/24 07:20:50;;;;;;;;;;;538.30;2406.40;;;;;;5038566;28;19913;-59
2022/10/24 07:23:16;;;;;;;;;;;589.40;2432.00;;;;;;5039832;28;19923;-60
2022/10/24 07:25:42;;;;;;;;;;;614.90;2227.20;;;;;;5038173;28;19921;-59
2022/10/24 07:28:09;;;;;;;;;;;615.30;2150.40;;;;;;5042952;28;19909;-60
2022/10/24 07:30:35;;;;;;;;;;;665.60;2022.40;;;;;;5043944;28;19913;-59
2022/10/24 07:33:01;;;;;;;;;;;665.70;1971.20;;;;;;5041849;28;19916;-59
2022/10/24 07:35:26;;;;;;;;;;;665.80;1945.60;;;;;;5043018;28;19919;-60
2022/10/24 07:37:52;;;;;;;;;;;665.60;1945.60;;;;;;5043742;28;19921;-60
2022/10/24 07:40:18;;;;;;;;;;;666.30;1894.40;;;;;;5047640;28;19932;-60
2022/10/24 07:42:44;;;;;;;;;;;691.80;1817.60;;;;;;5054056;28;19999;-60
2022/10/24 07:45:10;;;;;;;;;;;717.00;1792.00;;;;;;5044350;28;20046;-59
2022/10/24 07:47:35;;;;;;;;;;;716.90;1792.00;;;;;;5043270;28;19917;-61
2022/10/24 07:50:01;;;;;;;;;;;692.00;1792.00;;;;;;5046720;28;20337;-60
2022/10/24 07:52:27;;;;;;;;;;;691.90;1766.40;;;;;;5046720;28;19916;-60
2022/10/24 07:54:53;;;;;;;;;;;716.80;1766.40;;;;;;5046017;28;19916;-61
2022/10/24 07:57:19;;;;;;;;;;;716.90;1740.80;;;;;;5046462;28;19991;-60
2022/10/24 07:59:44;;;;;;;;;;;717.40;1740.80;;;;;;5045079;28;20374;-60
2022/10/24 08:02:11;;;;;;;;;;;717.40;1715.20;;;;;;5045889;28;19996;-60
2022/10/24 08:04:36;;;;;;;;;;;716.90;1740.80;;;;;;5045835;28;19929;-59
2022/10/24 08:07:02;;;;;;;;;;;691.80;1740.80;;;;;;5046795;28;20496;-59
2022/10/24 08:09:27;;;;;;;;;;;666.50;1817.60;;;;;;5046243;28;19917;-60
2022/10/24 08:11:53;;;;;;;;;;;666.00;1817.60;;;;;;5045678;28;19913;-59
2022/10/24 08:14:18;;;;;;;;;;;665.70;1868.80;;;;;;5045936;28;19948;-58
2022/10/24 08:16:44;;;;;;;;;;;666.20;1843.20;;;;;;5046033;28;19920;-59
2022/10/24 08:19:10;;;;;;;;;;;691.30;1792.00;;;;;;5045688;28;19913;-59
2022/10/24 08:21:36;;;;;;;;;;;691.70;1792.00;;;;;;5045954;28;19921;-59
2022/10/24 08:24:02;;;;;;;;;;;716.80;1792.00;;;;;;5044239;28;19916;-60
2022/10/24 08:26:27;;;;;;;;;;;717.10;1766.40;;;;;;5044415;28;19908;-60
2022/10/24 08:28:54;;;;;;;;;;;742.70;1740.80;;;;;;5043960;28;19916;-59
2022/10/24 08:31:20;;;;;;;;;;;743.00;1689.60;;;;;;5044238;28;19974;-58
2022/10/24 08:33:46;;;;;;;;;;;742.40;1715.20;;;;;;5044520;28;20328;-59
2022/10/24 08:36:19;;;;;;;;;;;742.80;1689.60;;;;;;5044309;28;19917;-59
2022/10/24 08:38:44;;;;;;;;;;;717.70;1689.60;;;;;;5033561;28;19909;-59
2022/10/24 08:41:15;;;;;;;;;;;742.40;1715.20;;;;;;5035647;28;19931;-59
2022/10/24 08:43:40;;;;;;;;;;;742.90;1689.60;;;;;;5034964;28;20291;-58
2022/10/24 08:46:13;;;;;;;;;;;742.70;1689.60;;;;;;5034881;28;19928;-60
2022/10/24 08:49:01;;;;;;;;;;;742.80;1689.60;;;;;;5041756;28;19913;-59
2022/10/24 08:51:45;;;;;;;;;;;768.60;1612.80;;;;;;5032958;28;19909;-58
2022/10/24 08:54:17;;;;;;;;;;;768.80;1587.20;;;;;;5032758;28;19960;-61
2022/10/24 08:56:42;;;;;;;;;;;768.00;1638.40;;;;;;5032735;28;19913;-61
2022/10/24 08:59:11;;;;;;;;;;;742.80;1689.60;;;;;;5032552;28;19963;-61
2022/10/24 09:01:36;;;;;;;;;;;743.10;1664.00;;;;;;5032593;28;20267;-61
2022/10/24 09:04:05;;;;;;;;;;;743.30;1664.00;;;;;;5032306;28;19917;-61
2022/10/24 09:06:31;;;;;;;;;;;768.70;1612.80;;;;;;5032571;28;20383;-61
2022/10/24 09:08:58;;;;;;;;;;;768.20;1638.40;;;;;;5032441;28;19932;-61
2022/10/24 09:11:27;;;;;;;;;;;742.70;1689.60;;;;;;5032572;28;19909;-61
2022/10/24 09:13:52;;;;;;;;;;;742.40;1715.20;;;;;;5032327;28;20443;-61
2022/10/24 09:16:20;;;;;;;;;;;717.10;1715.20;;;;;;5032173;28;20004;-61
2022/10/24 09:18:47;;;;;;;;;;;691.60;1792.00;;;;;;5032388;28;20355;-60
2022/10/24 09:21:13;;;;;;;;;;;691.40;1792.00;;;;;;5032329;28;20283;-61
2022/10/24 09:23:39;;;;;;;;;;;666.30;1817.60;;;;;;5032005;28;19909;-60
2022/10/24 09:26:07;;;;;;;;;;;666.50;1843.20;;;;;;5031902;28;19917;-61
2022/10/24 09:28:34;;;;;;;;;;;666.00;1817.60;;;;;;5032329;28;19928;-61
2022/10/24 09:31:11;;;;;;;;;;;665.70;1843.20;;;;;;5032109;28;19913;-61
2022/10/24 09:33:39;;;;;;;;;;;666.40;1792.00;;;;;;5032170;28;19917;-60
2022/10/24 09:36:08;;;;;;;;;;;665.70;1766.40;;;;;;5031889;28;19917;-60
2022/10/24 09:38:35;;;;;;;;;;;665.90;1740.80;;;;;;5031938;28;20024;-61
2022/10/24 09:41:02;;;;;;;;;;;665.70;1766.40;;;;;;5031893;28;19956;-60
2022/10/24 09:43:34;;;;;;;;;;;666.00;1766.40;;;;;;5031622;28;20344;-61
2022/10/24 09:46:02;;;;;;;;;;;666.00;1766.40;;;;;;5031627;28;19917;-61
2022/10/24 09:48:31;;;;;;;;;;;665.80;1766.40;;;;;;5031104;28;19924;-61
2022/10/24 09:50:57;;;;;;;;;;;640.90;1740.80;;;;;;5031596;28;19909;-60
2022/10/24 09:53:33;;;;;;;;;;;665.70;1766.40;;;;;;5031727;28;19920;-61
2022/10/24 09:56:09;;;;;;;;;;;666.20;1766.40;;;;;;5031780;28;19913;-61
2022/10/24 09:58:35;;;;;;;;;;;666.20;1766.40;;;;;;5031446;28;20363;-60
2022/10/24 10:01:06;;;;;;;;;;;666.30;1766.40;;;;;;5031748;28;19909;-60
2022/10/24 10:03:33;;;;;;;;;;;666.30;1792.00;;;;;;5031231;28;19909;-61
2022/10/24 10:06:01;;;;;;;;;;;666.30;1715.20;;;;;;5030950;28;19960;-61
2022/10/24 10:08:28;;;;;;;;;;;666.20;1766.40;;;;;;5031367;28;19909;-60
2022/10/24 10:11:14;;;;;;;;;;;666.20;1740.80;;;;;;5031395;28;19909;-61
2022/10/24 10:13:52;;;;;;;;;;;666.20;1740.80;;;;;;5030924;28;19909;-61
2022/10/24 10:16:28;;;;;;;;;;;666.20;1740.80;;;;;;5031141;28;19909;-61
2022/10/24 10:19:20;;;;;;;;;;;666.00;1715.20;;;;;;5031349;28;19909;-60
2022/10/24 10:22:00;;;;;;;;;;;666.00;1740.80;;;;;;5030796;28;19913;-60
2022/10/24 10:24:36;;;;;;;;;;;666.20;1715.20;;;;;;5031169;28;19942;-60
2022/10/24 10:27:22;;;;;;;;;;;666.30;1689.60;;;;;;5029770;28;19913;-60
2022/10/24 10:29:47;;;;;;;;;;;666.20;1715.20;;;;;;5030701;28;19909;-61
2022/10/24 10:32:24;;;;;;;;;;;666.00;1715.20;;;;;;5031057;28;20378;-60
2022/10/24 10:34:53;;;;;;;;;;;666.00;1740.80;;;;;;5030808;28;20016;-60
2022/10/24 10:37:25;;;;;;;;;;;666.10;1715.20;;;;;;5030619;28;19909;-61
2022/10/24 10:40:09;;;;;;;;;;;666.20;1689.60;;;;;;5030588;28;20432;-60
2022/10/24 10:42:53;;;;;;;;;;;666.30;1689.60;;;;;;5030881;28;20410;-60
2022/10/24 10:45:37;;;;;;;;;;;666.30;1715.20;;;;;;5030677;28;19917;-61
2022/10/24 10:48:08;;;;;;;;;;;666.30;1689.60;;;;;;5030620;28;19913;-61
2022/10/24 10:50:39;;;;;;;;;;;666.20;1664.00;;;;;;5030704;28;20387;-61
2022/10/24 10:53:24;;;;;;;;;;;666.20;1664.00;;;;;;5030917;28;20317;-60
2022/10/24 10:56:18;;;;;;;;;;;666.20;1587.20;;;;;;5030584;28;19932;-60
2022/10/24 10:58:47;;;;;;;;;;;666.50;1612.80;;;;;;5028435;28;19909;-60
2022/10/24 11:01:12;;;;;;;;;;;691.20;1612.80;;;;;;5028193;28;19913;-61
2022/10/24 11:03:44;;;;;;;;;;;691.20;1612.80;;;;;;5028238;28;19909;-61
2022/10/24 11:06:21;;;;;;;;;;;691.20;1587.20;;;;;;5027992;28;19932;-60
2022/10/24 11:08:48;;;;;;;;;;;691.20;1587.20;;;;;;5028324;28;20352;-61
2022/10/24 11:11:15;;;;;;;;;;;691.30;1587.20;;;;;;5028320;28;20355;-60
2022/10/24 11:13:45;;;;;;;;;;;691.50;1561.60;;;;;;5028013;28;20320;-60
2022/10/24 11:16:13;;;;;;;;;;;691.50;1536.00;;;;;;5027885;28;19916;-61
2022/10/24 11:18:40;;;;;;;;;;;691.50;1510.40;;;;;;5028032;28;19910;-61
2022/10/24 11:21:10;;;;;;;;;;;691.50;1510.40;;;;;;5028287;28;20370;-60
2022/10/24 11:23:56;;;;;;;;;;;691.60;1536.00;;;;;;5028112;28;19909;-60
2022/10/24 11:26:25;;;;;;;;;;;691.70;1510.40;;;;;;5027640;28;19994;-60
2022/10/24 11:28:55;;;;;;;;;;;691.70;1510.40;;;;;;5027901;28;19916;-61
2022/10/24 11:31:29;;;;;;;;;;;691.60;1484.80;;;;;;5027821;28;19909;-61
2022/10/24 11:34:07;;;;;;;;;;;691.70;1484.80;;;;;;5027780;28;19909;-61
2022/10/24 11:36:35;;;;;;;;;;;691.90;1484.80;;;;;;5030140;28;19909;-61
2022/10/24 11:39:10;;;;;;;;;;;691.90;1459.20;;;;;;5030183;28;20409;-61
2022/10/24 11:41:49;;;;;;;;;;;692.00;1484.80;;;;;;5030236;28;20014;-59
2022/10/24 11:44:23;;;;;;;;;;;692.00;1484.80;;;;;;5030088;28;19909;-60
2022/10/24 11:46:52;;;;;;;;;;;692.00;1484.80;;;;;;5029903;28;19948;-60
2022/10/24 11:49:28;;;;;;;;;;;691.90;1459.20;;;;;;5030382;28;20350;-60
2022/10/24 11:51:56;;;;;;;;;;;691.90;1484.80;;;;;;5030104;28;19916;-60
2022/10/24 11:54:30;;;;;;;;;;;692.00;1484.80;;;;;;5029950;28;19963;-61
2022/10/24 11:57:04;;;;;;;;;;;692.10;1459.20;;;;;;5030051;28;19909;-61
2022/10/24 11:59:29;;;;;;;;;;;692.10;1459.20;;;;;;5030171;28;19913;-60
2022/10/24 12:01:55;;;;;;;;;;;692.00;1459.20;;;;;;5029997;28;20364;-60
2022/10/24 12:04:24;;;;;;;;;;;692.10;1459.20;;;;;;5029576;28;19922;-61
2022/10/24 12:07:04;;;;;;;;;;;716.80;1484.80;;;;;;5029782;28;19909;-61
2022/10/24 12:09:42;;;;;;;;;;;716.90;1484.80;;;;;;5029973;28;19958;-57
2022/10/24 12:12:07;;;;;;;;;;;716.90;1484.80;;;;;;5030642;28;20188;-61
2022/10/24 12:14:33;;;;;;;;;;;716.90;1484.80;;;;;;5033677;28;19909;-60
2022/10/24 12:17:16;;;;;;;;;;;716.90;1484.80;;;;;;5033495;28;20473;-60
2022/10/24 12:19:43;;;;;;;;;;;716.90;1459.20;;;;;;5033571;28;20218;-60
2022/10/24 12:22:22;;;;;;;;;;;716.90;1459.20;;;;;;5042214;28;20003;-60
2022/10/24 12:24:48;;;;;;;;;;;716.90;1459.20;;;;;;5041772;28;20375;-60
2022/10/24 12:27:19;;;;;;;;;;;716.90;1484.80;;;;;;5041797;28;20351;-60
2022/10/24 12:29:58;;;;;;;;;;;716.90;1459.20;;;;;;5047364;28;20386;-60
2022/10/24 12:32:32;;;;;;;;;;;716.80;1484.80;;;;;;5053141;28;19962;-61
2022/10/24 12:35:01;;;;;;;;;;;716.90;1484.80;;;;;;5052927;28;20007;-60
2022/10/24 12:37:29;;;;;;;;;;;716.90;1510.40;;;;;;5053262;28;19915;-60
2022/10/24 12:39:55;;;;;;;;;;;716.80;1484.80;;;;;;5053205;28;19909;-60
2022/10/24 12:42:21;;;;;;;;;;;692.10;1459.20;;;;;;5052840;28;19999;-61
2022/10/24 12:44:49;;;;;;;;;;;692.10;1484.80;;;;;;5051644;28;19917;-61
2022/10/24 12:47:33;;;;;;;;;;;716.80;1510.40;;;;;;5052725;28;19913;-60
2022/10/24 12:50:17;;;;;;;;;;;716.80;1510.40;;;;;;5052869;28;19917;-60
2022/10/24 12:52:43;;;;;;;;;;;716.90;1484.80;;;;;;5052939;28;19913;-60
2022/10/24 12:55:27;;;;;;;;;;;716.90;1484.80;;;;;;5052652;28;20016;-60
2022/10/24 12:57:53;;;;;;;;;;;716.90;1484.80;;;;;;5052672;28;19971;-60
2022/10/24 13:00:24;;;;;;;;;;;716.80;1484.80;;;;;;5052595;28;19916;-61
2022/10/24 13:02:59;;;;;;;;;;;716.80;1484.80;;;;;;5052243;28;20367;-60
2022/10/24 13:05:24;;;;;;;;;;;716.80;1484.80;;;;;;5052307;28;19971;-61
2022/10/24 13:08:08;;;;;;;;;;;692.10;1484.80;;;;;;5052302;28;19909;-60
2022/10/24 13:10:47;;;;;;;;;;;692.10;1484.80;;;;;;5053005;28;19909;-61
2022/10/24 13:13:31;;;;;;;;;;;692.10;1510.40;;;;;;5052732;28;19909;-60
2022/10/24 13:16:17;;;;;;;;;;;692.10;1484.80;;;;;;5052502;28;19955;-61
2022/10/24 13:18:51;;;;;;;;;;;691.90;1510.40;;;;;;5051895;28;20362;-61
2022/10/24 13:21:16;;;;;;;;;;;691.90;1484.80;;;;;;5052212;28;19909;-61
2022/10/24 13:23:44;;;;;;;;;;;691.90;1510.40;;;;;;5052178;28;19909;-61
2022/10/24 13:26:29;;;;;;;;;;;691.80;1484.80;;;;;;5051939;28;19923;-60
2022/10/24 13:28:55;;;;;;;;;;;691.80;1484.80;;;;;;5052236;28;19909;-60
2022/10/24 13:31:20;;;;;;;;;;;691.80;1510.40;;;;;;5051923;28;20255;-60
2022/10/24 13:33:47;;;;;;;;;;;691.80;1510.40;;;;;;5051813;28;19916;-60
2022/10/24 13:36:16;;;;;;;;;;;691.80;1484.80;;;;;;5051941;28;19916;-60
2022/10/24 13:39:01;;;;;;;;;;;691.90;1484.80;;;;;;5051909;28;19909;-61
2022/10/24 13:41:32;;;;;;;;;;;691.80;1484.80;;;;;;5051786;28;19915;-61
2022/10/24 13:44:03;;;;;;;;;;;691.70;1510.40;;;;;;5051886;28;19969;-61
2022/10/24 13:46:57;;;;;;;;;;;691.70;1510.40;;;;;;5051356;28;19916;-62
2022/10/24 13:49:35;;;;;;;;;;;691.70;1484.80;;;;;;5049331;28;20028;-61
2022/10/24 13:52:13;;;;;;;;;;;691.70;1510.40;;;;;;5049285;28;20436;-61